createdAt,value
2022-11-10T00:00:36.419Z,8.93
2022-11-10T00:03:07.725Z,9.20
2022-11-10T00:05:37.342Z,8.65
2022-11-10T00:08:05.889Z,8.57
2022-11-10T00:10:33.189Z,8.00
2022-11-10T00:13:01.853Z,8.38
2022-11-10T00:15:47.594Z,7.45
2022-11-10T00:18:14.483Z,7.72
2022-11-10T00:20:41.240Z,7.28
2022-11-10T00:23:08.099Z,7.25
2022-11-10T00:25:34.883Z,7.07
2022-11-10T00:28:01.708Z,6.88
2022-11-10T00:30:28.451Z,6.30
2022-11-10T00:32:55.197Z,6.63
2022-11-10T00:35:21.982Z,6.72
2022-11-10T00:37:50.477Z,6.50
2022-11-10T00:40:17.346Z,6.50
2022-11-10T00:42:44.061Z,6.53
2022-11-10T00:45:10.931Z,5.75
2022-11-10T00:47:37.719Z,6.20
2022-11-10T00:50:04.848Z,5.07
2022-11-10T00:52:31.586Z,5.60
2022-11-10T00:54:58.315Z,6.05
2022-11-10T00:57:25.161Z,5.88
2022-11-10T00:59:51.906Z,5.63
2022-11-10T01:02:18.638Z,5.25
2022-11-10T01:04:45.352Z,5.18
2022-11-10T01:07:12.245Z,5.13
2022-11-10T01:09:39.019Z,5.65
2022-11-10T01:12:05.828Z,4.70
2022-11-10T01:14:32.705Z,4.93
2022-11-10T01:16:59.806Z,5.10
2022-11-10T01:19:26.581Z,4.70
2022-11-10T01:21:53.395Z,4.70
2022-11-10T01:24:21.685Z,5.43
2022-11-10T01:26:49.108Z,4.78
2022-11-10T01:29:15.900Z,5.03
2022-11-10T01:31:42.800Z,4.53
2022-11-10T01:34:09.791Z,6.28
2022-11-10T01:36:36.560Z,4.82
2022-11-10T01:39:03.360Z,4.35
2022-11-10T01:41:30.122Z,4.43
2022-11-10T01:44:16.428Z,4.55
2022-11-10T01:46:43.217Z,4.85
2022-11-10T01:49:10.152Z,3.80
2022-11-10T01:51:57.039Z,4.10
2022-11-10T01:54:29.923Z,4.20
2022-11-10T01:57:00.437Z,3.45
2022-11-10T01:59:31.835Z,3.60
2022-11-10T02:02:03.487Z,4.10
2022-11-10T02:04:30.754Z,4.57
2022-11-10T02:06:58.635Z,6.28
2022-11-10T02:09:25.653Z,3.95
2022-11-10T02:11:54.319Z,4.97
2022-11-10T02:14:21.099Z,5.05
2022-11-10T02:16:47.865Z,4.22
2022-11-10T02:19:25.731Z,4.13
2022-11-10T02:21:52.585Z,4.22
2022-11-10T02:24:19.360Z,3.85
2022-11-10T02:26:54.661Z,4.13
2022-11-10T02:29:21.838Z,3.42
2022-11-10T02:31:48.655Z,4.03
2022-11-10T02:34:15.498Z,3.72
2022-11-10T02:36:42.278Z,3.95
2022-11-10T02:39:09.031Z,3.83
2022-11-10T02:41:35.985Z,3.67
2022-11-10T02:44:03.642Z,4.00
2022-11-10T02:46:30.403Z,3.35
2022-11-10T02:48:57.193Z,3.88
2022-11-10T02:51:24.065Z,3.35
2022-11-10T02:53:50.811Z,3.38
2022-11-10T02:56:17.573Z,3.85
2022-11-10T02:58:44.335Z,3.45
2022-11-10T03:01:11.177Z,4.90
2022-11-10T03:03:38.028Z,4.03
2022-11-10T03:06:04.865Z,3.30
2022-11-10T03:08:31.578Z,4.05
2022-11-10T03:10:58.421Z,3.47
2022-11-10T03:13:32.122Z,3.92
2022-11-10T03:16:07.204Z,3.60
2022-11-10T03:18:33.958Z,3.72
2022-11-10T03:21:00.669Z,2.85
2022-11-10T03:23:27.452Z,4.05
2022-11-10T03:25:54.188Z,3.92
2022-11-10T03:28:20.931Z,2.92
2022-11-10T03:30:47.684Z,3.47
2022-11-10T03:33:14.427Z,3.67
2022-11-10T03:35:41.273Z,2.90
2022-11-10T03:38:08.115Z,3.70
2022-11-10T03:40:56.862Z,3.63
2022-11-10T03:43:21.847Z,2.75
2022-11-10T03:45:48.907Z,4.35
2022-11-10T03:48:15.643Z,3.30
2022-11-10T03:50:42.572Z,3.83
2022-11-10T03:53:09.303Z,3.67
2022-11-10T03:55:36.074Z,3.85
2022-11-10T03:58:04.196Z,3.42
2022-11-10T04:00:31.165Z,3.50
2022-11-10T04:02:57.891Z,3.95
2022-11-10T04:05:54.027Z,3.47
2022-11-10T04:08:39.440Z,3.42
2022-11-10T04:11:06.261Z,5.18
2022-11-10T04:13:51.429Z,2.40
2022-11-10T04:16:18.224Z,4.18
2022-11-10T04:18:44.927Z,3.33
2022-11-10T04:21:12.301Z,2.67
2022-11-10T04:23:39.084Z,3.00
2022-11-10T04:26:26.514Z,4.03
2022-11-10T04:28:58.435Z,3.60
2022-11-10T04:31:26.780Z,3.17
2022-11-10T04:33:54.616Z,3.00
2022-11-10T04:36:23.992Z,2.47
2022-11-10T04:38:50.870Z,2.40
2022-11-10T04:41:17.999Z,3.30
2022-11-10T04:43:44.777Z,2.80
2022-11-10T04:46:38.244Z,3.53
2022-11-10T04:49:05.939Z,3.28
2022-11-10T04:51:37.779Z,2.95
2022-11-10T04:54:05.856Z,3.17
2022-11-10T04:56:34.431Z,2.45
2022-11-10T04:59:01.216Z,3.60
2022-11-10T05:01:28.191Z,2.95
2022-11-10T05:03:55.472Z,2.15
2022-11-10T05:06:22.475Z,2.30
2022-11-10T05:08:49.749Z,3.17
2022-11-10T05:14:19.720Z,3.33
2022-11-10T05:16:46.569Z,2.58
2022-11-10T05:19:13.375Z,3.47
2022-11-10T05:21:40.310Z,3.00
2022-11-10T05:24:07.355Z,3.13
2022-11-10T05:26:34.207Z,2.55
2022-11-10T05:29:01.066Z,2.88
2022-11-10T05:31:28.181Z,3.55
2022-11-10T05:33:55.024Z,3.28
2022-11-10T05:36:21.904Z,3.08
2022-11-10T05:38:48.736Z,3.38
2022-11-10T05:41:15.603Z,3.30
2022-11-10T05:43:42.414Z,2.53
2022-11-10T05:46:09.312Z,1.83
2022-11-10T05:48:36.190Z,2.60
2022-11-10T05:51:03.058Z,2.67
2022-11-10T05:53:29.927Z,3.35
2022-11-10T05:55:56.752Z,3.70
2022-11-10T05:58:23.626Z,2.47
2022-11-10T06:00:50.496Z,3.15
2022-11-10T06:03:19.203Z,2.97
2022-11-10T06:05:46.464Z,3.83
2022-11-10T06:08:13.325Z,3.25
2022-11-10T06:10:40.633Z,3.00
2022-11-10T06:13:08.379Z,3.88
2022-11-10T06:15:35.346Z,2.50
2022-11-10T06:18:02.637Z,2.05
2022-11-10T06:20:29.600Z,2.40
2022-11-10T06:23:04.799Z,2.45
2022-11-10T06:25:33.711Z,2.05
2022-11-10T06:28:00.898Z,2.25
2022-11-10T06:30:28.651Z,2.85
2022-11-10T06:32:55.614Z,3.60
2022-11-10T06:35:23.202Z,6.15
2022-11-10T06:38:07.851Z,3.00
2022-11-10T06:40:34.824Z,3.70
2022-11-10T06:43:02.143Z,2.70
2022-11-10T06:45:29.590Z,3.30
2022-11-10T06:48:13.804Z,3.70
2022-11-10T06:50:40.726Z,19.88
2022-11-10T06:53:07.533Z,14.73
2022-11-10T06:55:34.375Z,15.13
2022-11-10T06:58:01.180Z,12.60
2022-11-10T07:00:28.815Z,10.30
2022-11-10T07:05:39.596Z,7.05
2022-11-10T07:08:09.123Z,7.40
2022-11-10T07:10:36.363Z,6.20
2022-11-10T07:13:04.994Z,6.57
2022-11-10T07:15:31.904Z,5.88
2022-11-10T07:17:58.737Z,4.97
2022-11-10T07:20:26.424Z,4.60
2022-11-10T07:23:04.370Z,4.07
2022-11-10T07:25:33.216Z,4.40
2022-11-10T07:28:01.459Z,3.83
2022-11-10T07:30:29.658Z,3.83
2022-11-10T07:33:16.211Z,15.10
2022-11-10T07:35:43.107Z,26.65
2022-11-10T07:38:11.940Z,22.50
2022-11-10T07:40:38.866Z,19.67
2022-11-10T07:43:05.766Z,17.08
2022-11-10T07:45:33.283Z,15.00
2022-11-10T07:48:01.376Z,18.67
2022-11-10T07:50:28.689Z,22.70
2022-11-10T07:53:10.031Z,15.85
2022-11-10T07:55:38.903Z,14.48
2022-11-10T07:58:06.221Z,12.83
2022-11-10T08:00:33.437Z,11.75
2022-11-10T08:03:08.577Z,11.40
2022-11-10T08:05:35.639Z,10.60
2022-11-10T08:08:02.963Z,10.13
2022-11-10T08:10:30.918Z,9.80
2022-11-10T08:13:00.157Z,9.73
2022-11-10T08:15:28.147Z,8.95
2022-11-10T08:18:18.602Z,9.00
2022-11-10T08:20:45.709Z,8.80
2022-11-10T08:23:12.850Z,7.80
2022-11-10T08:25:40.162Z,8.63
2022-11-10T08:28:12.036Z,8.35
2022-11-10T08:30:40.608Z,7.28
2022-11-10T08:33:09.201Z,8.05
2022-11-10T08:35:38.713Z,7.47
2022-11-10T08:38:17.059Z,12.50
2022-11-10T08:43:13.124Z,14.63
2022-11-10T08:45:41.666Z,10.65
2022-11-10T08:48:14.140Z,9.38
2022-11-10T08:50:41.743Z,8.63
2022-11-10T08:53:17.259Z,9.88
2022-11-10T08:55:44.974Z,8.07
2022-11-10T08:58:13.822Z,7.72
2022-11-10T09:00:40.799Z,7.67
2022-11-10T09:03:23.854Z,7.82
2022-11-10T09:05:57.689Z,7.10
2022-11-10T09:08:25.382Z,7.53
2022-11-10T09:10:52.698Z,7.20
2022-11-10T09:13:27.752Z,8.65
2022-11-10T09:16:00.079Z,6.80
2022-11-10T09:18:26.921Z,13.25
2022-11-10T09:20:54.491Z,17.50
2022-11-10T09:23:22.934Z,14.18
2022-11-10T09:25:52.028Z,12.35
2022-11-10T09:28:19.760Z,9.48
2022-11-10T09:30:47.897Z,9.07
2022-11-10T09:33:14.871Z,8.82
2022-11-10T09:35:43.023Z,7.57
2022-11-10T09:38:10.088Z,7.40
2022-11-10T09:41:04.617Z,8.23
2022-11-10T09:43:47.751Z,6.85
2022-11-10T09:46:24.931Z,6.72
2022-11-10T09:48:55.642Z,8.23
2022-11-10T09:51:24.399Z,6.82
2022-11-10T09:53:59.390Z,7.30
2022-11-10T09:56:34.734Z,6.75
2022-11-10T09:59:04.463Z,5.78
2022-11-10T10:04:05.031Z,6.43
2022-11-10T10:06:57.165Z,7.55
2022-11-10T10:09:24.034Z,6.70
2022-11-10T10:12:24.733Z,5.90
2022-11-10T10:15:06.676Z,5.70
2022-11-10T10:17:46.154Z,5.57
2022-11-10T10:20:32.316Z,5.47
2022-11-10T10:23:05.216Z,5.65
2022-11-10T10:25:33.067Z,6.57
2022-11-10T10:28:18.756Z,5.47
2022-11-10T10:30:46.114Z,5.80
2022-11-10T10:33:21.991Z,5.78
2022-11-10T10:35:50.223Z,5.30
2022-11-10T10:38:38.063Z,5.32
2022-11-10T10:41:22.489Z,4.80
2022-11-10T10:43:52.437Z,4.63
2022-11-10T10:46:28.406Z,6.43
2022-11-10T10:49:29.456Z,6.05
2022-11-10T10:52:06.186Z,6.43
2022-11-10T10:54:38.300Z,8.52
2022-11-10T10:59:51.626Z,10.25
2022-11-10T11:02:28.539Z,9.00
2022-11-10T11:05:19.672Z,9.38
2022-11-10T11:07:55.649Z,10.18
2022-11-10T11:10:29.170Z,10.98
2022-11-10T11:12:58.540Z,11.15
2022-11-10T11:15:28.498Z,13.43
2022-11-10T11:18:00.504Z,13.25
2022-11-10T11:20:49.741Z,13.35
2022-11-10T11:23:39.616Z,14.48
2022-11-10T11:26:18.360Z,11.70
2022-11-10T11:29:32.950Z,12.77
2022-11-10T11:32:58.808Z,12.25
2022-11-10T11:35:50.432Z,13.80
2022-11-10T11:38:23.644Z,11.30
2022-11-10T11:41:08.640Z,12.25
2022-11-10T11:43:41.362Z,13.00
2022-11-10T11:46:29.914Z,11.98
2022-11-10T11:49:26.598Z,14.30
2022-11-10T11:52:07.814Z,17.20
2022-11-10T11:55:04.888Z,11.18
2022-11-10T11:58:08.772Z,10.23
2022-11-10T12:01:03.416Z,10.63
2022-11-10T12:03:42.802Z,12.10
2022-11-10T12:06:09.601Z,15.32
2022-11-10T12:08:49.420Z,11.77
2022-11-10T12:11:47.418Z,7.80
2022-11-10T12:14:37.785Z,9.52
2022-11-10T12:17:17.098Z,9.75
2022-11-10T12:20:19.221Z,9.52
2022-11-10T12:23:08.021Z,8.73
2022-11-10T12:25:42.358Z,15.13
2022-11-10T12:28:18.918Z,15.13
2022-11-10T12:30:47.336Z,15.43
2022-11-10T12:33:37.161Z,13.90
2022-11-10T12:36:07.166Z,12.13
2022-11-10T12:38:59.435Z,10.30
2022-11-10T12:41:49.391Z,10.90
2022-11-10T12:44:30.785Z,9.15
2022-11-10T12:47:00.110Z,10.40
2022-11-10T12:49:35.551Z,9.85
2022-11-10T12:52:26.699Z,9.70
2022-11-10T12:54:54.064Z,9.95
2022-11-10T12:57:23.889Z,9.55
2022-11-10T12:59:56.049Z,9.13
2022-11-10T13:02:28.776Z,8.90
2022-11-10T13:05:14.042Z,8.25
2022-11-10T13:07:42.969Z,7.97
2022-11-10T13:10:22.614Z,9.38
2022-11-10T13:15:56.840Z,7.82
2022-11-10T13:18:24.883Z,7.25
2022-11-10T13:20:55.750Z,7.63
2022-11-10T13:23:37.817Z,8.55
2022-11-10T13:26:07.729Z,8.15
2022-11-10T13:28:47.061Z,8.75
2022-11-10T13:31:29.285Z,7.45
2022-11-10T13:34:09.224Z,8.48
2022-11-10T13:36:40.374Z,7.43
2022-11-10T13:39:17.315Z,6.88
2022-11-10T13:42:00.723Z,5.95
2022-11-10T13:44:36.098Z,8.90
2022-11-10T13:47:08.642Z,6.30
2022-11-10T13:49:48.729Z,7.00
2022-11-10T13:52:35.218Z,5.03
2022-11-10T13:55:16.174Z,6.43
2022-11-10T13:57:57.131Z,4.82
2022-11-10T14:00:34.602Z,6.57
2022-11-10T14:03:06.540Z,6.38
2022-11-10T14:05:38.358Z,5.32
2022-11-10T14:08:10.992Z,5.50
2022-11-10T14:10:53.262Z,7.05
2022-11-10T14:13:40.367Z,6.63
2022-11-10T14:16:23.281Z,5.22
2022-11-10T14:18:52.813Z,4.72
2022-11-10T14:21:33.109Z,5.22
2022-11-10T14:24:26.225Z,6.78
2022-11-10T14:26:54.376Z,5.40
2022-11-10T14:29:40.368Z,6.32
2022-11-10T14:32:26.184Z,5.60
2022-11-10T14:34:57.750Z,5.88
2022-11-10T14:37:26.889Z,6.03
2022-11-10T14:40:01.333Z,5.78
2022-11-10T14:45:21.161Z,7.28
2022-11-10T14:47:56.314Z,8.63
2022-11-10T14:50:34.935Z,5.43
2022-11-10T14:53:14.376Z,5.35
2022-11-10T14:55:43.832Z,5.25
2022-11-10T14:58:15.540Z,6.45
2022-11-10T15:00:44.139Z,6.13
2022-11-10T15:03:17.331Z,5.55
2022-11-10T15:05:44.543Z,7.45
2022-11-10T15:08:16.441Z,4.45
2022-11-10T15:10:53.012Z,4.60
2022-11-10T15:13:34.046Z,5.30
2022-11-10T15:16:22.647Z,4.53
2022-11-10T15:18:51.091Z,5.63
2022-11-10T15:21:26.892Z,5.18
2022-11-10T15:23:56.048Z,5.15
2022-11-10T15:26:26.558Z,6.97
2022-11-10T15:28:53.616Z,6.28
2022-11-10T15:31:34.443Z,5.07
2022-11-10T15:34:05.693Z,5.50
2022-11-10T15:36:35.689Z,4.55
2022-11-10T15:39:20.230Z,5.05
2022-11-10T15:41:48.238Z,5.53
2022-11-10T15:44:25.875Z,5.50
2022-11-10T15:46:55.015Z,3.72
2022-11-10T15:49:28.000Z,5.60
2022-11-10T15:52:01.108Z,4.38
2022-11-10T15:54:30.436Z,4.63
2022-11-10T15:56:57.251Z,4.22
2022-11-10T15:59:24.130Z,3.50
2022-11-10T16:01:51.084Z,4.18
2022-11-10T16:04:18.026Z,3.60
2022-11-10T16:06:45.722Z,5.95
2022-11-10T16:09:13.491Z,4.57
2022-11-10T16:11:43.199Z,5.20
2022-11-10T16:16:37.967Z,5.45
2022-11-10T16:19:04.869Z,4.90
2022-11-10T16:21:31.833Z,6.70
2022-11-10T16:23:58.831Z,4.35
2022-11-10T16:26:26.341Z,3.47
2022-11-10T16:28:53.194Z,4.60
2022-11-10T16:31:22.079Z,7.63
2022-11-10T16:33:49.772Z,6.68
2022-11-10T16:36:26.174Z,10.38
2022-11-10T16:38:53.929Z,4.90
2022-11-10T16:41:21.299Z,7.82
2022-11-10T16:43:48.244Z,5.80
2022-11-10T16:46:28.600Z,8.07
2022-11-10T16:49:00.369Z,5.70
2022-11-10T16:51:36.705Z,6.75
2022-11-10T16:54:03.765Z,4.18
2022-11-10T16:56:30.644Z,5.55
2022-11-10T16:58:57.514Z,8.90
2022-11-10T17:01:27.476Z,5.55
2022-11-10T17:03:56.990Z,5.45
2022-11-10T17:08:57.405Z,6.00
2022-11-10T17:11:24.378Z,5.10
2022-11-10T17:13:51.497Z,5.38
2022-11-10T17:16:32.430Z,4.93
2022-11-10T17:19:01.484Z,5.30
2022-11-10T17:21:32.867Z,3.67
2022-11-10T17:24:00.475Z,32.33
2022-11-10T17:26:28.138Z,25.58
2022-11-10T17:28:54.966Z,18.58
2022-11-10T17:31:22.166Z,13.27
2022-11-10T17:33:49.037Z,14.60
2022-11-10T17:36:20.966Z,9.65
2022-11-10T17:38:47.871Z,8.77
2022-11-10T17:41:16.420Z,9.88
2022-11-10T17:43:47.176Z,8.93
2022-11-10T17:46:15.176Z,6.97
2022-11-10T17:48:42.773Z,7.50
2022-11-10T17:51:18.511Z,6.97
2022-11-10T17:53:45.747Z,6.50
2022-11-10T17:56:12.821Z,9.57
2022-11-10T17:58:39.792Z,5.45
2022-11-10T18:01:33.176Z,5.75
2022-11-10T18:04:00.597Z,5.90
2022-11-10T18:06:27.471Z,6.10
2022-11-10T18:08:54.589Z,6.50
2022-11-10T18:11:21.502Z,7.07
2022-11-10T18:13:48.652Z,5.03
2022-11-10T18:16:15.677Z,5.65
2022-11-10T18:18:42.688Z,6.30
2022-11-10T18:21:10.026Z,4.70
2022-11-10T18:23:37.054Z,6.07
2022-11-10T18:26:08.322Z,5.63
2022-11-10T18:28:35.526Z,5.97
2022-11-10T18:31:09.728Z,4.82
2022-11-10T18:33:37.021Z,5.95
2022-11-10T18:36:04.535Z,18.15
2022-11-10T18:38:31.418Z,18.60
2022-11-10T18:41:23.480Z,17.45
2022-11-10T18:43:50.347Z,13.55
2022-11-10T18:46:17.256Z,12.55
2022-11-10T18:48:45.751Z,10.40
2022-11-10T18:51:12.606Z,9.68
2022-11-10T18:53:39.414Z,9.40
2022-11-10T18:56:06.534Z,8.80
2022-11-10T18:58:33.343Z,11.13
2022-11-10T19:01:04.988Z,7.80
2022-11-10T19:03:32.500Z,8.15
2022-11-10T19:05:59.644Z,7.03
2022-11-10T19:08:27.355Z,6.68
2022-11-10T19:10:57.292Z,6.80
2022-11-10T19:13:24.653Z,6.40
2022-11-10T19:15:51.967Z,6.75
2022-11-10T19:18:18.898Z,6.55
2022-11-10T19:20:45.699Z,6.10
2022-11-10T19:23:12.601Z,6.15
2022-11-10T19:25:39.491Z,6.10
2022-11-10T19:28:09.184Z,6.00
2022-11-10T19:33:02.782Z,6.15
2022-11-10T19:35:30.424Z,5.78
2022-11-10T19:37:57.310Z,5.68
2022-11-10T19:40:24.171Z,6.20
2022-11-10T19:42:51.290Z,5.45
2022-11-10T19:45:18.146Z,5.03
2022-11-10T19:47:44.962Z,5.60
2022-11-10T19:50:11.777Z,5.95
2022-11-10T19:52:38.726Z,5.13
2022-11-10T19:55:06.014Z,6.05
2022-11-10T19:57:32.879Z,4.70
2022-11-10T19:59:59.775Z,6.18
2022-11-10T20:02:26.742Z,4.75
2022-11-10T20:05:12.307Z,5.40
2022-11-10T20:07:57.848Z,5.32
2022-11-10T20:10:24.733Z,6.38
2022-11-10T20:12:51.577Z,9.27
2022-11-10T20:15:18.436Z,4.32
2022-11-10T20:17:45.329Z,5.07
2022-11-10T20:20:12.355Z,4.95
2022-11-10T20:22:39.313Z,10.82
2022-11-10T20:25:06.486Z,16.70
2022-11-10T20:27:33.373Z,14.82
2022-11-10T20:30:00.331Z,12.63
2022-11-10T20:32:27.328Z,11.05
2022-11-10T20:34:54.258Z,9.60
2022-11-10T20:37:21.384Z,9.57
2022-11-10T20:39:48.305Z,8.40
2022-11-10T20:42:15.200Z,8.10
2022-11-10T20:44:42.066Z,7.88
2022-11-10T20:47:09.030Z,7.75
2022-11-10T20:49:35.949Z,7.07
2022-11-10T20:52:03.348Z,7.00
2022-11-10T20:54:30.403Z,6.40
2022-11-10T20:56:57.310Z,6.15
2022-11-10T20:59:24.450Z,7.13
2022-11-10T21:01:51.310Z,6.55
2022-11-10T21:04:18.532Z,6.05
2022-11-10T21:06:45.503Z,6.30
2022-11-10T21:09:12.592Z,6.75
2022-11-10T21:11:58.101Z,5.38
2022-11-10T21:14:24.941Z,5.32
2022-11-10T21:16:51.783Z,5.38
2022-11-10T21:19:18.630Z,5.75
2022-11-10T21:21:45.474Z,5.10
2022-11-10T21:24:12.422Z,5.07
2022-11-10T21:26:39.703Z,5.95
2022-11-10T21:29:09.572Z,19.00
2022-11-10T21:31:36.458Z,21.15
2022-11-10T21:34:03.332Z,15.05
2022-11-10T21:36:31.243Z,12.82
2022-11-10T21:38:58.714Z,10.40
2022-11-10T21:41:26.403Z,9.60
2022-11-10T21:43:53.427Z,9.40
2022-11-10T21:46:20.964Z,9.00
2022-11-10T21:48:47.906Z,7.95
2022-11-10T21:51:14.715Z,7.95
2022-11-10T21:53:44.287Z,15.65
2022-11-10T21:56:11.955Z,24.40
2022-11-10T21:58:39.373Z,20.33
2022-11-10T22:01:08.286Z,15.60
2022-11-10T22:03:36.188Z,12.90
2022-11-10T22:06:14.315Z,12.63
2022-11-10T22:08:42.820Z,10.75
2022-11-10T22:11:34.801Z,10.02
2022-11-10T22:14:19.782Z,9.15
2022-11-10T22:17:07.085Z,9.55
2022-11-10T22:19:35.009Z,9.13
2022-11-10T22:22:03.972Z,8.65
2022-11-10T22:24:31.534Z,8.38
2022-11-10T22:27:00.426Z,7.75
2022-11-10T22:29:31.730Z,7.78
2022-11-10T22:32:00.204Z,7.13
2022-11-10T22:34:27.063Z,7.30
2022-11-10T22:36:57.171Z,11.98
2022-11-10T22:39:43.978Z,35.47
2022-11-10T22:42:31.905Z,29.67
2022-11-10T22:44:58.927Z,23.42
2022-11-10T22:47:28.615Z,20.55
2022-11-10T22:49:55.465Z,16.77
2022-11-10T22:52:22.333Z,14.35
2022-11-10T22:54:49.174Z,13.75
2022-11-10T22:57:16.056Z,13.65
2022-11-10T22:59:43.000Z,12.65
2022-11-10T23:02:09.822Z,11.52
2022-11-10T23:04:36.670Z,10.98
2022-11-10T23:07:03.605Z,11.63
2022-11-10T23:09:30.484Z,10.95
2022-11-10T23:11:57.416Z,9.88
2022-11-10T23:14:24.374Z,10.23
2022-11-10T23:16:51.264Z,25.40
2022-11-10T23:19:18.196Z,28.00
2022-11-10T23:21:45.033Z,21.25
2022-11-10T23:24:13.578Z,18.55
2022-11-10T23:26:40.448Z,15.48
2022-11-10T23:29:07.365Z,14.20
2022-11-10T23:31:34.192Z,11.93
2022-11-10T23:34:01.004Z,11.85
2022-11-10T23:36:27.970Z,12.15
2022-11-10T23:38:55.460Z,11.40
2022-11-10T23:41:26.774Z,11.57
2022-11-10T23:43:54.022Z,9.75
2022-11-10T23:46:20.985Z,11.15
2022-11-10T23:48:47.848Z,31.67
2022-11-10T23:51:15.084Z,27.98
2022-11-10T23:53:42.033Z,23.08
2022-11-10T23:56:13.296Z,18.15
2022-11-10T23:58:40.643Z,16.88
